Time;durP1;ratioP1;P1;durP2;ratioP2;P2;SDS_P1;SDS_P2;PMS_P1;PMS_P2;Temp;Humidity;BMP_temperature;BMP_pressure;BME280_temperature;BME280_humidity;BME280_pressure;Samples;Min_cycle;Max_cycle;Signal;HPM_P1;HPM_P2
2022/10/27 00:00:18;;;;;;;9.18;3.60;;;12.00;99.90;;;;;;5068582;28;20039;-63
2022/10/27 00:02:44;;;;;;;5.50;2.55;;;12.10;99.90;;;;;;5069805;28;20403;-64
2022/10/27 00:05:10;;;;;;;4.85;3.38;;;12.00;99.90;;;;;;5067648;28;20024;-64
2022/10/27 00:07:36;;;;;;;9.38;2.47;;;12.00;99.90;;;;;;5069657;28;20028;-65
2022/10/27 00:10:04;;;;;;;7.97;3.03;;;11.90;99.90;;;;;;5068960;28;20028;-64
2022/10/27 00:12:31;;;;;;;7.03;2.95;;;11.90;99.90;;;;;;5064479;28;20013;-64
2022/10/27 00:15:00;;;;;;;5.32;2.88;;;11.90;99.90;;;;;;5068294;28;20206;-64
2022/10/27 00:17:27;;;;;;;7.50;3.88;;;11.80;99.90;;;;;;5061322;28;20503;-64
2022/10/27 00:19:53;;;;;;;9.07;3.33;;;11.80;99.90;;;;;;5069162;28;20495;-64
2022/10/27 00:22:19;;;;;;;16.25;3.30;;;11.70;99.90;;;;;;5069189;28;20104;-64
2022/10/27 00:24:44;;;;;;;9.00;3.22;;;11.70;99.90;;;;;;5068778;28;20449;-64
2022/10/27 00:27:10;;;;;;;12.57;2.80;;;11.60;99.90;;;;;;5068056;28;20024;-64
2022/10/27 00:29:35;;;;;;;5.55;2.80;;;11.60;99.90;;;;;;5069218;28;20036;-65
2022/10/27 00:32:01;;;;;;;8.80;3.60;;;11.60;99.90;;;;;;5066640;28;20392;-65
2022/10/27 00:34:27;;;;;;;8.70;3.47;;;11.60;99.90;;;;;;5058819;28;20032;-65
2022/10/27 00:36:52;;;;;;;7.47;3.30;;;11.60;99.90;;;;;;5067495;28;20029;-63
2022/10/27 00:39:18;;;;;;;3.47;2.55;;;11.60;99.90;;;;;;5064097;28;20035;-64
2022/10/27 00:41:44;;;;;;;15.43;3.22;;;11.60;99.90;;;;;;5066038;28;20556;-64
2022/10/27 00:44:45;;;;;;;14.73;3.65;;;11.60;99.90;;;;;;5060426;28;20063;-65
2022/10/27 00:47:14;;;;;;;7.38;3.53;;;11.70;99.90;;;;;;5007309;28;20033;-64
2022/10/27 00:49:45;;;;;;;8.35;3.45;;;11.70;99.90;;;;;;5049923;28;20032;-64
2022/10/27 00:52:19;;;;;;;6.15;2.70;;;11.70;99.90;;;;;;5063586;28;20505;-63
2022/10/27 00:54:45;;;;;;;;;;;11.70;99.90;;;;;;5066971;28;20033;-65
2022/10/27 00:57:11;;;;;;;6.05;2.95;;;11.60;99.90;;;;;;5066932;28;20299;-65
2022/10/27 00:59:38;;;;;;;11.80;4.03;;;11.60;99.90;;;;;;5064654;28;20033;-64
2022/10/27 01:02:05;;;;;;;12.35;3.28;;;11.60;99.90;;;;;;5059351;28;20143;-64
2022/10/27 01:04:38;;;;;;;6.57;3.00;;;11.60;99.90;;;;;;5064797;28;20398;-65
2022/10/27 01:07:04;;;;;;;7.47;3.33;;;11.60;99.90;;;;;;5068931;28;20024;-64
2022/10/27 01:09:30;;;;;;;13.02;3.47;;;11.60;99.90;;;;;;5068267;28;20081;-64
2022/10/27 01:11:55;;;;;;;12.48;3.08;;;11.60;99.90;;;;;;5066114;28;20036;-65
2022/10/27 01:14:21;;;;;;;8.75;2.63;;;11.60;99.90;;;;;;5069115;28;20023;-64
2022/10/27 01:17:03;;;;;;;12.48;3.45;;;11.60;99.90;;;;;;5061927;28;20942;-64
2022/10/27 01:19:47;;;;;;;9.05;3.65;;;11.60;99.90;;;;;;5069519;28;20028;-64
2022/10/27 01:22:26;;;;;;;6.15;3.30;;;11.50;99.90;;;;;;5067665;28;20518;-64
2022/10/27 01:24:59;;;;;;;7.28;3.60;;;11.60;99.90;;;;;;5062213;28;20071;-64
2022/10/27 01:27:50;;;;;;;9.95;3.67;;;11.60;99.90;;;;;;5059410;28;20060;-64
2022/10/27 01:30:22;;;;;;;4.60;2.80;;;11.60;99.90;;;;;;5065500;28;20032;-64
2022/10/27 01:33:10;;;;;;;9.55;3.45;;;11.60;99.90;;;;;;5052140;28;20424;-64
2022/10/27 01:35:47;;;;;;;16.80;3.50;;;11.60;99.90;;;;;;5067923;28;20514;-65
2022/10/27 01:38:19;;;;;;;8.02;2.95;;;11.60;99.90;;;;;;5066820;28;20399;-64
2022/10/27 01:40:58;;;;;;;6.03;3.40;;;11.60;99.90;;;;;;5061471;28;20035;-65
2022/10/27 01:43:26;;;;;;;6.35;3.03;;;11.60;99.90;;;;;;5051412;28;20090;-64
2022/10/27 01:45:53;;;;;;;12.18;3.78;;;11.60;99.90;;;;;;5067545;28;20039;-65
2022/10/27 01:48:19;;;;;;;12.73;3.92;;;11.70;99.90;;;;;;5069670;28;20029;-64
2022/10/27 01:50:45;;;;;;;5.45;2.65;;;11.60;99.90;;;;;;5062062;28;20113;-65
2022/10/27 01:53:11;;;;;;;10.55;3.17;;;11.70;99.90;;;;;;5070033;28;20024;-65
2022/10/27 01:55:55;;;;;;;11.70;3.58;;;11.70;99.90;;;;;;5068337;28;20073;-64
2022/10/27 01:58:48;;;;;;;8.75;3.55;;;11.60;99.90;;;;;;5071751;28;20024;-64
2022/10/27 02:01:49;;;;;;;5.50;2.58;;;11.70;99.90;;;;;;5069473;28;20031;-63
2022/10/27 02:04:29;;;;;;;5.30;2.88;;;11.70;99.90;;;;;;5071444;28;20169;-64
2022/10/27 02:07:10;;;;;;;9.45;2.90;;;11.70;99.90;;;;;;5072332;28;20029;-64
2022/10/27 02:09:41;;;;;;;9.30;4.80;;;11.70;99.90;;;;;;5070191;28;20511;-63
2022/10/27 02:12:24;;;;;;;5.00;3.58;;;11.70;99.90;;;;;;5072689;28;20028;-64
2022/10/27 02:14:52;;;;;;;7.03;3.17;;;11.60;99.90;;;;;;5063224;28;20033;-64
2022/10/27 02:17:19;;;;;;;6.60;3.00;;;11.60;99.90;;;;;;5071459;28;20025;-63
2022/10/27 02:19:49;;;;;;;15.32;2.70;;;11.60;99.90;;;;;;5068662;28;20068;-64
2022/10/27 02:22:15;;;;;;;5.25;2.45;;;11.50;99.90;;;;;;5071462;28;20025;-64
2022/10/27 02:24:41;;;;;;;6.88;2.45;;;11.50;99.90;;;;;;5069054;28;20376;-64
2022/10/27 02:27:16;;;;;;;8.63;3.08;;;11.50;99.90;;;;;;5066428;28;20036;-64
2022/10/27 02:29:46;;;;;;;4.38;2.85;;;11.50;99.90;;;;;;5066826;28;20059;-64
2022/10/27 02:32:16;;;;;;;7.47;3.47;;;11.60;99.90;;;;;;5068721;28;20025;-64
2022/10/27 02:34:44;;;;;;;9.93;3.13;;;11.60;99.90;;;;;;5064808;28;20043;-64
2022/10/27 02:37:16;;;;;;;11.10;4.00;;;11.60;99.90;;;;;;5070206;28;20031;-64
2022/10/27 02:39:41;;;;;;;10.02;3.20;;;11.60;99.90;;;;;;5070675;28;20046;-64
2022/10/27 02:42:07;;;;;;;15.45;3.45;;;11.60;99.90;;;;;;5071689;28;20490;-63
2022/10/27 02:44:33;;;;;;;5.43;2.95;;;11.60;99.90;;;;;;5071303;28;20031;-64
2022/10/27 02:46:58;;;;;;;6.45;3.20;;;11.50;99.90;;;;;;5066269;28;20070;-64
2022/10/27 02:49:24;;;;;;;4.85;2.97;;;11.50;99.90;;;;;;5070370;28;20028;-65
2022/10/27 02:51:49;;;;;;;5.55;2.60;;;11.50;99.90;;;;;;5069933;28;20032;-64
2022/10/27 02:54:15;;;;;;;8.25;3.05;;;11.50;99.90;;;;;;5061320;28;20050;-64
2022/10/27 02:56:40;;;;;;;12.02;3.40;;;11.60;99.90;;;;;;5070901;28;20023;-64
2022/10/27 02:59:06;;;;;;;8.07;2.80;;;11.60;99.90;;;;;;5069368;28;20020;-64
2022/10/27 03:01:31;;;;;;;5.35;3.28;;;11.60;99.90;;;;;;5075924;22;20050;-66
2022/10/27 03:03:57;;;;;;;8.52;3.13;;;11.60;99.90;;;;;;5015321;28;20068;-67
2022/10/27 03:06:23;;;;;;;11.85;3.40;;;11.60;99.90;;;;;;5030166;28;20029;-66
2022/10/27 03:08:48;;;;;;;6.32;3.08;;;11.60;99.90;;;;;;5031642;28;20079;-66
2022/10/27 03:11:14;;;;;;;7.53;2.70;;;11.60;99.90;;;;;;5030384;28;20505;-67
2022/10/27 03:13:39;;;;;;;8.40;3.25;;;11.60;99.90;;;;;;5031339;28;20021;-68
2022/10/27 03:16:05;;;;;;;5.53;2.97;;;11.60;99.90;;;;;;5028081;28;20037;-67
2022/10/27 03:18:31;;;;;;;15.73;2.90;;;11.50;99.90;;;;;;5030894;28;20018;-67
2022/10/27 03:20:56;;;;;;;8.43;2.85;;;11.50;99.90;;;;;;5012958;28;20084;-65
2022/10/27 03:23:22;;;;;;;6.97;2.58;;;11.60;99.90;;;;;;5011784;28;20060;-66
2022/10/27 03:25:48;;;;;;;4.80;2.60;;;11.60;99.90;;;;;;5031942;28;20034;-66
2022/10/27 03:28:13;;;;;;;4.68;2.60;;;11.50;99.90;;;;;;5030823;28;20083;-65
2022/10/27 03:30:39;;;;;;;11.00;3.53;;;11.60;99.90;;;;;;5036255;28;20032;-66
2022/10/27 03:33:05;;;;;;;6.65;3.13;;;11.50;99.90;;;;;;5040807;28;20033;-67
2022/10/27 03:35:30;;;;;;;4.78;2.70;;;11.50;99.90;;;;;;5035630;28;20581;-67
2022/10/27 03:38:00;;;;;;;4.28;2.80;;;11.50;99.90;;;;;;5028440;28;20029;-65
2022/10/27 03:40:26;;;;;;;5.85;2.85;;;11.50;99.90;;;;;;5029720;28;20037;-66
2022/10/27 03:42:56;;;;;;;17.15;3.13;;;11.50;99.90;;;;;;5031350;28;20021;-67
2022/10/27 03:45:22;;;;;;;17.50;2.80;;;11.50;99.90;;;;;;5030940;28;20022;-67
2022/10/27 03:47:47;;;;;;;9.30;3.88;;;11.50;99.90;;;;;;5029662;28;20029;-68
2022/10/27 03:50:13;;;;;;;6.60;2.67;;;11.50;99.90;;;;;;5029454;28;20559;-64
2022/10/27 03:52:40;;;;;;;6.28;2.70;;;11.50;99.90;;;;;;5032507;28;20037;-67
2022/10/27 03:55:06;;;;;;;7.07;2.70;;;11.50;99.90;;;;;;5031660;28;20049;-66
2022/10/27 03:57:32;;;;;;;6.10;2.80;;;11.50;99.90;;;;;;5030826;28;20640;-68
2022/10/27 03:59:57;;;;;;;9.85;3.13;;;11.50;99.90;;;;;;5031498;28;20134;-66
2022/10/27 04:02:23;;;;;;;3.58;2.45;;;11.50;99.90;;;;;;5029439;28;20128;-65
2022/10/27 04:04:48;;;;;;;5.13;2.70;;;11.50;99.90;;;;;;5033793;28;20033;-67
2022/10/27 04:07:14;;;;;;;7.22;2.42;;;11.40;99.90;;;;;;5013204;28;20026;-67
2022/10/27 04:09:40;;;;;;;9.40;3.50;;;11.40;99.90;;;;;;5029129;28;20033;-64
2022/10/27 04:12:05;;;;;;;19.85;3.72;;;11.30;99.90;;;;;;5035304;28;20112;-67
2022/10/27 04:14:31;;;;;;;4.63;2.60;;;11.30;99.90;;;;;;5029866;28;20053;-68
2022/10/27 04:16:56;;;;;;;14.18;3.15;;;11.40;99.90;;;;;;5030169;28;20025;-67
2022/10/27 04:19:22;;;;;;;7.55;2.92;;;11.40;99.90;;;;;;5030343;28;20033;-65
2022/10/27 04:21:48;;;;;;;8.95;3.97;;;11.50;99.90;;;;;;5015602;28;20017;-65
2022/10/27 04:24:13;;;;;;;6.13;2.50;;;11.50;99.90;;;;;;5032171;28;20032;-66
2022/10/27 04:26:39;;;;;;;5.40;2.85;;;11.50;99.90;;;;;;5033561;28;20025;-66
2022/10/27 04:29:05;;;;;;;7.60;2.35;;;11.50;99.90;;;;;;5033405;28;20033;-70
2022/10/27 04:31:31;;;;;;;5.28;3.08;;;11.50;99.90;;;;;;5033099;28;20013;-67
2022/10/27 04:33:57;;;;;;;13.00;2.75;;;11.60;99.90;;;;;;5033353;28;20428;-68
2022/10/27 04:36:23;;;;;;;9.32;4.55;;;11.60;99.90;;;;;;5035592;28;20052;-67
2022/10/27 04:38:49;;;;;;;8.10;4.60;;;11.60;99.90;;;;;;5028694;28;20167;-66
2022/10/27 04:41:15;;;;;;;5.90;3.90;;;11.60;99.90;;;;;;5032220;28;20041;-68
2022/10/27 04:43:41;;;;;;;7.82;5.22;;;11.60;99.90;;;;;;5029916;28;20024;-67
2022/10/27 04:46:06;;;;;;;5.80;3.63;;;11.60;99.90;;;;;;5036409;28;20597;-68
2022/10/27 04:48:32;;;;;;;8.10;2.97;;;11.60;99.90;;;;;;5029171;28;20039;-66
2022/10/27 04:50:57;;;;;;;5.50;3.20;;;11.70;99.90;;;;;;5030802;28;20087;-67
2022/10/27 04:53:23;;;;;;;9.45;4.20;;;11.70;99.90;;;;;;5030105;28;20037;-68
2022/10/27 04:55:51;;;;;;;5.40;3.17;;;11.60;99.90;;;;;;5029524;28;20087;-65
2022/10/27 04:58:17;;;;;;;5.82;3.00;;;11.60;99.90;;;;;;5032793;28;20481;-66
2022/10/27 05:00:42;;;;;;;6.32;3.35;;;11.50;99.90;;;;;;5032411;28;20091;-66
2022/10/27 05:03:08;;;;;;;5.80;2.67;;;11.40;99.90;;;;;;5031797;28;20494;-67
2022/10/27 05:05:34;;;;;;;9.90;3.15;;;11.40;99.90;;;;;;5033747;28;20033;-65
2022/10/27 05:08:01;;;;;;;7.93;3.67;;;11.30;99.90;;;;;;5034506;28;20032;-66
2022/10/27 05:10:31;;;;;;;9.70;3.90;;;11.20;99.90;;;;;;5028435;28;20037;-67
2022/10/27 05:12:57;;;;;;;6.97;3.05;;;11.20;99.90;;;;;;5032664;28;20108;-66
2022/10/27 05:15:23;;;;;;;6.80;3.05;;;11.30;99.90;;;;;;5034221;28;20104;-68
2022/10/27 05:17:49;;;;;;;6.38;2.70;;;11.30;99.90;;;;;;5035256;28;20437;-66
2022/10/27 05:20:15;;;;;;;6.28;2.83;;;11.30;99.90;;;;;;5017236;28;20055;-65
2022/10/27 05:22:41;;;;;;;10.43;3.17;;;11.30;99.90;;;;;;5030103;28;20033;-67
2022/10/27 05:25:08;;;;;;;8.38;2.90;;;11.30;99.90;;;;;;5030296;28;20033;-67
2022/10/27 05:27:34;;;;;;;5.30;3.10;;;11.30;99.90;;;;;;5043106;28;20031;-68
2022/10/27 05:30:00;;;;;;;10.82;2.45;;;11.20;99.90;;;;;;5034180;28;20041;-69
2022/10/27 05:32:25;;;;;;;9.45;2.35;;;11.30;99.90;;;;;;5035186;28;20025;-67
2022/10/27 05:34:51;;;;;;;18.85;3.55;;;11.30;99.90;;;;;;5031465;28;20373;-68
2022/10/27 05:37:16;;;;;;;6.95;2.78;;;11.30;99.90;;;;;;5041019;28;20029;-68
2022/10/27 05:39:42;;;;;;;6.95;2.15;;;11.30;99.90;;;;;;5032787;28;20112;-67
2022/10/27 05:42:07;;;;;;;7.15;2.70;;;11.40;99.90;;;;;;5032843;28;20033;-67
2022/10/27 05:44:33;;;;;;;6.72;2.95;;;11.40;99.90;;;;;;5032920;28;20095;-67
2022/10/27 05:46:58;;;;;;;4.90;2.45;;;11.50;99.90;;;;;;5036292;28;20030;-67
2022/10/27 05:49:24;;;;;;;8.18;2.40;;;11.50;99.90;;;;;;5034656;28;20029;-68
2022/10/27 05:51:50;;;;;;;4.03;2.40;;;11.60;99.90;;;;;;5037215;28;20211;-68
2022/10/27 05:54:16;;;;;;;6.85;2.47;;;11.60;99.90;;;;;;5030966;28;20029;-67
2022/10/27 05:56:42;;;;;;;3.58;2.33;;;11.70;99.90;;;;;;5033151;28;20029;-67
2022/10/27 05:59:09;;;;;;;5.90;2.33;;;11.70;99.90;;;;;;5032048;28;20021;-68
2022/10/27 06:01:34;;;;;;;3.78;2.50;;;11.70;99.90;;;;;;5035724;28;20127;-66
2022/10/27 06:04:00;;;;;;;4.07;2.20;;;11.70;99.90;;;;;;5019685;28;20101;-66
2022/10/27 06:06:26;;;;;;;11.52;3.20;;;11.70;99.90;;;;;;5036762;28;20018;-66
2022/10/27 06:08:51;;;;;;;7.55;2.45;;;11.80;99.90;;;;;;5039384;28;20041;-67
2022/10/27 06:11:17;;;;;;;6.40;3.10;;;11.80;99.90;;;;;;5029579;28;20030;-67
2022/10/27 06:13:42;;;;;;;5.68;1.98;;;11.80;99.90;;;;;;5034599;28;20093;-67
2022/10/27 06:16:08;;;;;;;10.13;2.28;;;11.90;99.90;;;;;;5035071;28;20021;-67
2022/10/27 06:18:34;;;;;;;13.38;3.85;;;11.90;99.90;;;;;;5034508;28;20049;-67
2022/10/27 06:20:59;;;;;;;6.63;2.00;;;11.90;99.90;;;;;;5035748;28;20041;-65
2022/10/27 06:23:25;;;;;;;3.85;2.55;;;11.90;99.90;;;;;;5031088;28;20043;-67
2022/10/27 06:25:50;;;;;;;4.43;1.98;;;11.90;99.90;;;;;;5032234;28;20110;-67
2022/10/27 06:28:16;;;;;;;4.40;2.13;;;11.90;99.90;;;;;;5039592;28;20049;-67
2022/10/27 06:30:43;;;;;;;4.95;2.50;;;11.90;99.90;;;;;;5028541;28;20025;-66
2022/10/27 06:33:09;;;;;;;3.85;2.13;;;12.00;99.90;;;;;;5031156;28;20025;-65
2022/10/27 06:35:35;;;;;;;7.20;2.20;;;12.00;99.90;;;;;;5014227;28;20029;-67
2022/10/27 06:38:00;;;;;;;3.30;1.92;;;12.10;99.90;;;;;;5034121;28;20063;-68
2022/10/27 06:40:26;;;;;;;10.38;2.38;;;12.20;99.90;;;;;;5033504;28;20034;-69
2022/10/27 06:42:52;;;;;;;5.20;2.10;;;12.30;99.90;;;;;;5031347;28;20597;-66
2022/10/27 06:45:18;;;;;;;3.10;2.55;;;12.40;99.90;;;;;;5029907;28;20057;-66
2022/10/27 06:47:44;;;;;;;3.55;2.05;;;12.40;99.90;;;;;;5032466;28;20038;-66
2022/10/27 06:50:11;;;;;;;4.80;2.45;;;12.50;99.90;;;;;;5030953;28;20098;-68
2022/10/27 06:52:37;;;;;;;6.55;2.35;;;12.50;99.90;;;;;;5031516;28;20477;-66
2022/10/27 06:55:03;;;;;;;3.80;2.28;;;12.60;99.90;;;;;;5031994;28;20025;-67
2022/10/27 06:57:29;;;;;;;6.93;1.98;;;12.70;99.90;;;;;;5032081;28;20528;-67
2022/10/27 06:59:55;;;;;;;2.70;1.80;;;12.70;99.90;;;;;;5016416;28;20036;-66
2022/10/27 07:02:21;;;;;;;2.50;1.50;;;12.70;99.90;;;;;;4997953;28;20512;-66
2022/10/27 07:04:47;;;;;;;8.52;1.75;;;12.80;99.90;;;;;;5007718;28;20055;-68
2022/10/27 07:07:12;;;;;;;3.47;1.98;;;12.80;99.90;;;;;;5010404;28;20033;-67
2022/10/27 07:09:39;;;;;;;4.68;1.35;;;12.80;99.90;;;;;;5009541;28;20080;-66
2022/10/27 07:12:05;;;;;;;7.22;1.70;;;12.80;99.90;;;;;;5009836;28;20493;-67
2022/10/27 07:14:30;;;;;;;6.13;1.90;;;12.90;99.90;;;;;;5013987;28;20026;-66
2022/10/27 07:16:58;;;;;;;2.72;1.55;;;12.90;99.90;;;;;;5010619;28;20033;-68
2022/10/27 07:19:24;;;;;;;4.32;1.60;;;13.00;99.90;;;;;;5010034;28;20411;-66
2022/10/27 07:21:49;;;;;;;6.68;2.35;;;12.90;99.90;;;;;;5016890;28;20037;-67
2022/10/27 07:24:15;;;;;;;1.95;1.45;;;13.10;99.90;;;;;;5014909;28;20448;-67
2022/10/27 07:26:40;;;;;;;4.60;1.83;;;13.20;99.90;;;;;;4994094;28;20111;-66
2022/10/27 07:29:06;;;;;;;3.95;2.03;;;13.20;99.90;;;;;;5014096;28;20152;-66
2022/10/27 07:31:31;;;;;;;6.63;1.65;;;13.20;99.90;;;;;;4992965;28;20041;-66
2022/10/27 07:33:57;;;;;;;4.57;1.75;;;13.20;99.90;;;;;;5019169;28;20030;-66
2022/10/27 07:36:23;;;;;;;2.47;1.50;;;13.30;99.90;;;;;;5013428;28;20084;-67
2022/10/27 07:38:48;;;;;;;7.40;1.85;;;13.30;99.90;;;;;;5016614;28;20018;-67
2022/10/27 07:41:14;;;;;;;3.60;1.70;;;13.40;99.90;;;;;;5011924;28;20133;-66
2022/10/27 07:43:39;;;;;;;4.13;1.60;;;13.40;99.90;;;;;;5008879;28;20459;-66
2022/10/27 07:46:05;;;;;;;6.75;1.98;;;13.40;99.90;;;;;;5015493;28;20033;-67
2022/10/27 07:48:31;;;;;;;5.90;1.75;;;13.50;99.90;;;;;;5011424;28;20030;-67
2022/10/27 07:50:56;;;;;;;8.70;1.67;;;13.60;99.90;;;;;;5013793;28;20072;-65
2022/10/27 07:53:22;;;;;;;9.70;1.60;;;13.60;99.90;;;;;;5011126;28;20093;-68
2022/10/27 07:55:47;;;;;;;4.10;1.90;;;13.70;99.90;;;;;;5010735;28;20022;-68
2022/10/27 07:58:15;;;;;;;8.65;1.98;;;13.60;99.90;;;;;;5010224;28;20057;-66
2022/10/27 08:00:46;;;;;;;4.78;1.85;;;13.70;99.90;;;;;;4997204;28;20042;-67
2022/10/27 08:03:24;;;;;;;4.72;1.77;;;13.70;99.90;;;;;;5010033;28;20029;-66
2022/10/27 08:05:50;;;;;;;9.38;1.60;;;13.80;99.90;;;;;;5006240;28;20492;-65
2022/10/27 08:08:16;;;;;;;8.18;1.92;;;13.80;99.90;;;;;;5009567;28;20026;-68
2022/10/27 08:10:43;;;;;;;7.10;1.77;;;13.90;99.90;;;;;;5013035;28;20028;-65
2022/10/27 08:13:09;;;;;;;5.85;1.40;;;13.90;99.90;;;;;;5006390;28;20676;-66
2022/10/27 08:15:36;;;;;;;3.55;2.08;;;14.00;99.90;;;;;;5009667;28;20097;-67
2022/10/27 08:18:02;;;;;;;8.02;1.48;;;14.10;99.90;;;;;;5019883;28;20033;-66
2022/10/27 08:20:34;;;;;;;3.55;1.30;;;14.20;99.90;;;;;;5011410;28;20014;-66
2022/10/27 08:23:22;;;;;;;4.25;1.80;;;14.20;99.90;;;;;;5012124;28;20931;-67
2022/10/27 08:25:48;;;;;;;4.07;1.85;;;14.30;99.90;;;;;;5007555;28;20033;-67
2022/10/27 08:28:14;;;;;;;4.00;1.88;;;14.40;99.90;;;;;;5016381;28;20037;-67
2022/10/27 08:30:40;;;;;;;4.28;1.75;;;14.50;99.90;;;;;;5009445;28;20018;-66
2022/10/27 08:33:07;;;;;;;2.35;1.65;;;14.60;99.90;;;;;;5017111;28;20033;-66
2022/10/27 08:35:34;;;;;;;2.30;1.10;;;14.70;99.90;;;;;;5012960;28;20512;-67
2022/10/27 08:38:01;;;;;;;3.47;2.05;;;14.70;99.90;;;;;;5009804;28;20077;-67
2022/10/27 08:40:36;;;;;;;2.50;1.35;;;14.80;99.90;;;;;;5011741;28;20021;-66
2022/10/27 08:43:18;;;;;;;10.18;2.13;;;14.90;99.90;;;;;;5012823;28;20030;-66
2022/10/27 08:45:59;;;;;;;2.25;1.58;;;14.90;99.90;;;;;;5014325;28;20551;-67
2022/10/27 08:48:27;;;;;;;4.50;1.48;;;15.00;99.90;;;;;;5007508;28;20038;-68
2022/10/27 08:50:53;;;;;;;6.05;1.80;;;15.00;99.90;;;;;;5013073;28;20033;-67
2022/10/27 08:53:26;;;;;;;3.15;1.67;;;15.10;99.90;;;;;;5008734;28;20030;-68
2022/10/27 08:55:56;;;;;;;4.50;1.55;;;15.20;99.90;;;;;;5003263;28;20033;-67
2022/10/27 08:58:38;;;;;;;3.25;1.30;;;15.30;99.90;;;;;;4992916;28;20442;-67
2022/10/27 09:01:16;;;;;;;4.53;1.70;;;15.40;99.90;;;;;;4988798;28;20050;-67
2022/10/27 09:04:00;;;;;;;6.45;1.42;;;15.50;99.90;;;;;;5001953;28;20037;-67
2022/10/27 09:06:58;;;;;;;6.25;2.00;;;15.60;99.90;;;;;;5012899;28;20050;-69
2022/10/27 09:09:38;;;;;;;3.88;1.40;;;15.80;99.90;;;;;;5002686;28;20042;-67
2022/10/27 09:12:12;;;;;;;2.30;1.23;;;16.00;99.90;;;;;;5011281;28;20038;-67
2022/10/27 09:14:52;;;;;;;6.93;1.20;;;16.40;99.90;;;;;;4998200;28;20033;-64
2022/10/27 09:17:30;;;;;;;4.18;2.30;;;17.00;99.90;;;;;;5006758;28;20029;-64
2022/10/27 09:20:03;;;;;;;1.70;1.13;;;17.50;99.90;;;;;;5008947;28;20026;-65
2022/10/27 09:22:30;;;;;;;2.50;1.10;;;17.90;99.90;;;;;;5009811;28;20022;-65
2022/10/27 09:25:00;;;;;;;5.18;1.08;;;18.30;99.90;;;;;;5009933;28;20489;-65
2022/10/27 09:27:26;;;;;;;6.30;1.17;;;18.50;99.90;;;;;;4989824;28;20079;-64
2022/10/27 09:29:56;;;;;;;6.50;1.30;;;18.50;99.90;;;;;;5008456;28;20034;-64
2022/10/27 09:32:24;;;;;;;2.53;1.15;;;18.70;99.90;;;;;;5009236;28;20030;-66
2022/10/27 09:35:22;;;;;;;2.30;1.00;;;18.90;99.90;;;;;;5002692;28;20026;-64
2022/10/27 09:37:48;;;;;;;4.25;1.40;;;19.00;99.90;;;;;;5003972;28;20042;-65
2022/10/27 09:40:20;;;;;;;2.75;1.02;;;19.10;99.90;;;;;;5008641;28;20034;-65
2022/10/27 09:42:49;;;;;;;2.92;1.23;;;19.40;99.90;;;;;;5008928;28;20044;-65
2022/10/27 09:45:20;;;;;;;6.25;1.23;;;19.40;99.90;;;;;;5010303;28;20365;-65
2022/10/27 09:47:49;;;;;;;6.45;1.25;;;19.40;99.90;;;;;;5006032;28;20103;-66
2022/10/27 09:50:22;;;;;;;1.52;0.90;;;19.30;99.90;;;;;;4992929;28;20038;-66
2022/10/27 09:52:49;;;;;;;3.28;1.27;;;19.30;99.90;;;;;;5007195;28;20029;-66
2022/10/27 09:55:16;;;;;;;3.60;1.15;;;19.30;99.90;;;;;;5005991;28;20567;-67
2022/10/27 09:57:42;;;;;;;6.90;3.33;;;19.10;99.90;;;;;;5008261;28;20037;-64
2022/10/27 10:00:29;;;;;;;2.95;1.30;;;19.10;99.90;;;;;;5006599;28;20045;-64
2022/10/27 10:03:16;;;;;;;3.53;1.33;;;19.00;99.90;;;;;;5021636;28;20172;-67
2022/10/27 10:05:43;;;;;;;4.70;1.27;;;19.00;99.90;;;;;;5017780;28;20029;-66
2022/10/27 10:08:21;;;;;;;5.53;1.52;;;18.90;99.90;;;;;;5043108;28;20029;-66
2022/10/27 10:10:54;;;;;;;6.00;1.70;;;18.90;99.90;;;;;;5039117;28;20029;-66
2022/10/27 10:13:20;;;;;;;;;;;18.80;99.90;;;;;;5029991;28;20091;-69
2022/10/27 10:15:46;;;;;;;4.88;2.75;;;18.90;99.90;;;;;;5022226;28;19908;-67
2022/10/27 10:18:26;;;;;;;6.50;1.73;;;18.90;99.90;;;;;;5025598;28;21645;-69
2022/10/27 10:21:10;;;;;;;12.55;1.75;;;18.90;99.90;;;;;;5025325;28;20052;-68
2022/10/27 10:23:48;;;;;;;3.38;1.83;;;19.00;99.90;;;;;;5031612;28;20033;-67
2022/10/27 10:26:21;;;;;;;6.60;1.50;;;19.10;99.90;;;;;;5030249;28;20052;-64
2022/10/27 10:28:51;;;;;;;4.65;1.50;;;19.10;99.90;;;;;;5030452;28;20037;-67
2022/10/27 10:31:26;;;;;;;3.72;1.67;;;19.20;99.90;;;;;;5013868;28;20075;-68
2022/10/27 10:34:01;;;;;;;2.65;1.73;;;19.30;99.90;;;;;;5027453;28;20026;-67
2022/10/27 10:36:35;;;;;;;5.97;1.85;;;19.30;99.90;;;;;;5030560;28;20091;-66
2022/10/27 10:39:02;;;;;;;3.63;1.70;;;19.40;99.90;;;;;;5028178;28;20117;-67
2022/10/27 10:41:29;;;;;;;7.45;2.05;;;19.50;99.90;;;;;;5025252;28;20551;-66
2022/10/27 10:44:26;;;;;;;4.82;1.77;;;19.60;99.90;;;;;;5030001;28;20033;-66
2022/10/27 10:46:54;;;;;;;5.18;2.63;;;19.70;99.90;;;;;;4988031;28;20115;-65
2022/10/27 10:49:23;;;;;;;4.57;1.67;;;19.60;99.90;;;;;;5028513;28;20041;-66
2022/10/27 10:51:58;;;;;;;6.38;2.10;;;19.60;99.90;;;;;;5035491;28;20032;-65
2022/10/27 10:54:30;;;;;;;8.60;2.10;;;19.60;99.90;;;;;;5007033;28;20029;-66
2022/10/27 10:56:55;;;;;;;6.15;1.63;;;19.60;99.90;;;;;;5030768;28;20030;-65
2022/10/27 10:59:30;;;;;;;4.10;1.83;;;19.70;99.90;;;;;;5030059;28;20037;-64
2022/10/27 11:02:15;;;;;;;5.82;1.95;;;19.80;99.90;;;;;;5009963;28;20073;-64
2022/10/27 11:04:48;;;;;;;8.65;1.80;;;19.70;99.90;;;;;;5028968;28;20025;-66
2022/10/27 11:07:20;;;;;;;5.00;1.67;;;19.80;99.90;;;;;;5033078;28;20499;-64
2022/10/27 11:09:54;;;;;;;9.82;1.98;;;19.80;99.90;;;;;;5030617;28;20103;-67
2022/10/27 11:12:40;;;;;;;10.88;2.30;;;19.80;99.90;;;;;;5022359;28;20040;-63
2022/10/27 11:15:28;;;;;;;7.63;1.98;;;19.90;99.90;;;;;;5029753;28;20492;-66
2022/10/27 11:18:01;;;;;;;4.05;1.65;;;19.90;99.90;;;;;;5031186;28;20567;-65
2022/10/27 11:20:31;;;;;;;9.27;2.00;;;20.00;99.90;;;;;;5027761;28;20041;-65
2022/10/27 11:22:58;;;;;;;3.53;1.10;;;20.00;99.90;;;;;;5035685;28;20026;-65
2022/10/27 11:25:29;;;;;;;6.15;1.80;;;20.00;99.90;;;;;;5030612;28;20033;-66
2022/10/27 11:28:05;;;;;;;10.18;1.70;;;20.00;99.90;;;;;;5071007;23;20045;-66
2022/10/27 11:30:35;;;;;;;6.82;1.50;;;20.00;99.90;;;;;;5047680;28;20024;-64
2022/10/27 11:33:46;;;;;;;3.95;1.45;;;19.90;99.90;;;;;;5049490;28;20745;-65
2022/10/27 11:36:20;;;;;;;7.38;1.88;;;19.90;99.90;;;;;;5041140;28;20037;-65
2022/10/27 11:39:08;;;;;;;4.93;1.70;;;19.90;99.90;;;;;;5049754;28;20570;-65
2022/10/27 11:41:37;;;;;;;7.55;2.08;;;19.80;99.90;;;;;;5049857;28;20084;-64
2022/10/27 11:44:18;;;;;;;4.68;1.75;;;19.80;99.90;;;;;;5050154;28;20122;-64
2022/10/27 11:46:58;;;;;;;6.28;1.60;;;19.80;99.90;;;;;;5050045;28;20042;-66
2022/10/27 11:49:27;;;;;;;5.13;1.77;;;19.80;99.90;;;;;;5048017;28;20021;-65
2022/10/27 11:52:14;;;;;;;6.68;2.08;;;19.90;99.90;;;;;;5045069;28;20610;-66
2022/10/27 11:54:40;;;;;;;6.72;1.98;;;19.90;99.90;;;;;;5041719;28;20487;-64
2022/10/27 11:57:27;;;;;;;7.72;1.45;;;19.90;99.90;;;;;;5050387;28;20043;-64
2022/10/27 12:00:05;;;;;;;9.10;2.40;;;20.00;99.90;;;;;;5043257;28;20060;-65
2022/10/27 12:03:02;;;;;;;5.97;1.55;;;20.00;99.90;;;;;;5032032;28;20098;-65
2022/10/27 12:05:50;;;;;;;8.25;2.05;;;20.00;99.90;;;;;;5048214;28;20059;-66
2022/10/27 12:08:35;;;;;;;7.70;1.50;;;20.10;99.90;;;;;;5049641;28;20037;-64
2022/10/27 12:11:24;;;;;;;6.55;2.00;;;20.10;99.90;;;;;;5045759;28;20021;-65
2022/10/27 12:14:10;;;;;;;3.20;1.75;;;20.10;99.90;;;;;;5043805;28;20028;-66
2022/10/27 12:16:49;;;;;;;5.25;2.75;;;20.10;99.90;;;;;;5049009;28;20035;-65
2022/10/27 12:19:27;;;;;;;4.00;2.17;;;20.10;99.90;;;;;;5049937;28;20082;-64
2022/10/27 12:22:05;;;;;;;9.82;3.20;;;20.10;99.90;;;;;;5047162;28;20021;-65
2022/10/27 12:24:42;;;;;;;7.43;2.00;;;20.10;99.90;;;;;;5033657;28;20395;-65
2022/10/27 12:27:10;;;;;;;5.93;2.58;;;20.20;99.90;;;;;;5045263;28;20013;-65
2022/10/27 12:29:42;;;;;;;6.75;2.97;;;20.20;99.90;;;;;;5040547;28;20428;-66
2022/10/27 12:32:40;;;;;;;4.70;1.60;;;20.30;99.90;;;;;;5042937;28;20059;-66
2022/10/27 12:35:08;;;;;;;5.72;2.00;;;20.40;99.90;;;;;;5043828;28;20044;-65
2022/10/27 12:37:40;;;;;;;8.32;2.10;;;20.40;99.90;;;;;;5050753;28;20021;-65
2022/10/27 12:40:28;;;;;;;3.58;1.90;;;20.50;99.90;;;;;;5048217;28;20039;-65
2022/10/27 12:43:16;;;;;;;8.63;2.20;;;20.60;99.90;;;;;;5047598;28;20021;-65
2022/10/27 12:45:54;;;;;;;17.30;2.28;;;20.60;99.90;;;;;;5045373;28;20035;-64
2022/10/27 12:48:38;;;;;;;5.63;2.85;;;20.60;99.90;;;;;;5044664;28;20128;-65
2022/10/27 12:51:21;;;;;;;11.77;2.10;;;20.60;99.90;;;;;;5044233;28;20029;-65
2022/10/27 12:54:24;;;;;;;4.28;1.83;;;20.60;99.90;;;;;;5048872;28;20037;-64
2022/10/27 12:57:20;;;;;;;12.02;2.20;;;20.60;99.90;;;;;;5018954;28;20029;-65
2022/10/27 13:00:07;;;;;;;5.80;2.08;;;20.60;99.90;;;;;;5024535;28;20500;-66
2022/10/27 13:03:06;;;;;;;14.98;2.83;;;20.70;99.90;;;;;;5026840;28;20524;-66